Time;durP1;ratioP1;P1;durP2;ratioP2;P2;SDS_P1;SDS_P2;PMS_P1;PMS_P2;Temp;Humidity;BMP_temperature;BMP_pressure;BME280_temperature;BME280_humidity;BME280_pressure;Samples;Min_cycle;Max_cycle;Signal;HPM_P1;HPM_P2
2022/03/24 00:01:02;;;;;;;591.00;440.17;;;;;;;2.96;52.91;95572.47;5073165;28;20175;-82
2022/03/24 00:03:31;;;;;;;580.33;471.67;;;;;;;3.07;53.28;95598.28;5078173;28;20224;-82
2022/03/24 00:05:57;;;;;;;587.07;486.17;;;;;;;2.58;53.91;95524.97;5077456;28;20295;-82
2022/03/24 00:08:22;;;;;;;616.40;484.83;;;;;;;2.80;54.00;95575.72;5073828;28;20640;-83
2022/03/24 00:10:48;;;;;;;588.37;505.80;;;;;;;2.69;54.39;95554.28;5073373;28;20182;-84
2022/03/24 00:13:17;;;;;;;524.57;463.17;;;;;;;2.55;54.32;95517.44;5055903;28;20281;-82
2022/03/24 00:15:44;;;;;;;1999.90;999.90;;;;;;;2.78;54.38;95562.03;5054352;28;20420;-84
2022/03/24 00:18:10;;;;;;;841.47;698.13;;;;;;;2.77;53.71;95555.19;5073352;28;20174;-84
2022/03/24 00:20:37;;;;;;;1999.90;999.90;;;;;;;2.49;53.20;95499.84;5071529;28;20451;-84
2022/03/24 00:23:05;;;;;;;1569.03;764.17;;;;;;;2.81;53.64;95573.94;5054023;28;20425;-83
2022/03/24 00:25:30;;;;;;;943.63;697.23;;;;;;;2.21;53.52;95451.47;5073320;28;20174;-83
2022/03/24 00:27:56;;;;;;;1999.90;999.90;;;;;;;3.66;53.67;95686.19;5053940;28;20410;-84
2022/03/24 00:30:22;;;;;;;1999.90;999.90;;;;;;;2.51;53.95;95504.88;5072036;28;20410;-83
2022/03/24 00:32:48;;;;;;;1122.87;773.83;;;;;;;2.48;53.80;95499.97;5073298;28;20248;-82
2022/03/24 00:35:16;;;;;;;688.27;571.60;;;;;;;2.67;53.80;95519.84;5073056;28;20606;-84
2022/03/24 00:37:42;;;;;;;1602.55;785.60;;;;;;;3.42;54.24;95637.34;5072212;28;20444;-84
2022/03/24 00:40:08;;;;;;;1074.20;538.45;;;;;;;2.92;55.05;95552.94;5071787;28;20421;-84
2022/03/24 00:42:37;;;;;;;1999.90;999.90;;;;;;;2.27;55.06;95456.06;5053243;28;20505;-84
2022/03/24 00:45:15;;;;;;;1999.90;999.90;;;;;;;3.40;54.94;95634.06;5053786;28;20416;-84
2022/03/24 00:47:44;;;;;;;879.67;723.17;;;;;;;3.11;55.09;95591.00;5054412;28;20265;-85
2022/03/24 00:50:18;;;;;;;1999.90;999.90;;;;;;;2.49;54.42;95488.63;5049069;28;20422;-84
2022/03/24 00:52:45;;;;;;;1999.90;999.90;;;;;;;3.05;54.89;95589.78;5071416;28;20461;-84
2022/03/24 00:55:14;;;;;;;1999.90;999.90;;;;;;;2.11;55.27;95441.13;5071686;28;20906;-84
2022/03/24 00:57:42;;;;;;;1259.97;812.47;;;;;;;2.25;55.06;95455.38;5054999;28;20178;-84
2022/03/24 01:00:09;;;;;;;654.57;585.37;;;;;;;2.23;54.35;95454.72;5073038;28;20170;-82
2022/03/24 01:02:38;;;;;;;1999.90;999.90;;;;;;;2.40;55.27;95498.13;5058674;28;20428;-83
2022/03/24 01:05:08;;;;;;;1999.90;999.90;;;;;;;2.08;54.89;95437.97;5071135;28;20945;-83
2022/03/24 01:07:35;;;;;;;641.47;558.97;;;;;;;2.60;55.57;95536.00;5050121;28;20213;-83
2022/03/24 01:10:03;;;;;;;1999.90;999.90;;;;;;;2.09;56.06;95461.22;5053284;28;20450;-83
2022/03/24 01:12:29;;;;;;;581.30;518.20;;;;;;;2.95;55.47;95596.81;5052758;28;20194;-84
2022/03/24 01:14:56;;;;;;;483.47;439.50;;;;;;;3.31;55.79;95660.94;5077143;28;20167;-83
2022/03/24 01:17:23;;;;;;;543.70;495.03;;;;;;;3.32;55.18;95660.00;5054569;28;20190;-84
2022/03/24 01:19:49;;;;;;;494.97;456.37;;;;;;;3.28;55.89;95661.25;5054508;28;20212;-84
2022/03/24 01:22:15;;;;;;;507.63;465.90;;;;;;;2.73;55.90;95576.44;5054438;28;20217;-84
2022/03/24 01:24:41;;;;;;;427.60;392.30;;;;;;;2.75;55.95;95579.72;5072134;28;20601;-84
2022/03/24 01:27:07;;;;;;;365.30;337.53;;;;;;;3.18;56.35;95644.88;5072230;28;20639;-84
2022/03/24 01:29:33;;;;;;;1424.70;750.80;;;;;;;2.47;55.60;95535.53;5072162;28;20175;-83
2022/03/24 01:31:59;;;;;;;225.23;207.30;;;;;;;2.77;56.18;95588.97;5054094;28;20249;-83
2022/03/24 01:34:25;;;;;;;110.23;102.73;;;;;;;3.08;55.77;95628.50;5071740;28;20268;-84
2022/03/24 01:36:51;;;;;;;93.33;86.47;;;;;;;2.68;56.25;95573.47;5054094;28;21000;-84
2022/03/24 01:39:16;;;;;;;286.50;263.40;;;;;;;2.40;56.01;95533.66;5054172;28;20257;-84
2022/03/24 01:41:45;;;;;;;206.60;188.50;;;;;;;2.51;56.91;95560.25;5072054;28;20185;-84
2022/03/24 01:44:12;;;;;;;1351.83;683.67;;;;;;;2.94;56.88;95629.00;5071992;28;20177;-84
2022/03/24 01:46:52;;;;;;;1999.90;999.90;;;;;;;2.55;57.41;95569.41;5071965;28;20171;-85
2022/03/24 01:49:18;;;;;;;233.93;216.07;;;;;;;2.25;57.23;95525.50;5072013;28;20240;-85
2022/03/24 01:51:43;;;;;;;1999.90;999.90;;;;;;;2.88;57.01;95627.78;5071854;28;20607;-85
2022/03/24 01:54:10;;;;;;;192.57;155.30;;;;;;;2.81;57.41;95637.13;5071869;28;20210;-84
2022/03/24 01:56:35;;;;;;;50.07;22.50;;;;;;;2.56;57.66;95602.22;5071879;28;20186;-85
2022/03/24 01:59:01;;;;;;;52.77;23.27;;;;;;;2.42;57.58;95573.31;5071677;28;20170;-84
2022/03/24 02:01:34;;;;;;;55.03;23.73;;;;;;;2.78;57.81;95639.19;5071508;28;20182;-84
2022/03/24 02:04:04;;;;;;;56.07;25.37;;;;;;;2.70;58.28;95621.72;5071772;28;20170;-84
2022/03/24 02:06:31;;;;;;;70.93;24.17;;;;;;;2.31;57.99;95569.09;5071675;28;20262;-84
2022/03/24 02:08:57;;;;;;;58.47;24.77;;;;;;;2.50;58.11;95612.38;5053564;28;20178;-84
2022/03/24 02:11:23;;;;;;;69.03;24.67;;;;;;;2.16;57.95;95558.34;5071516;28;20178;-84
2022/03/24 02:13:48;;;;;;;52.37;22.13;;;;;;;2.15;57.96;95554.13;5071604;28;20577;-84
2022/03/24 02:16:15;;;;;;;54.37;21.93;;;;;;;2.47;58.13;95603.09;5073133;28;20192;-84
2022/03/24 02:18:41;;;;;;;51.37;20.27;;;;;;;1.63;57.87;95463.88;5077600;28;20170;-85
2022/03/24 02:21:08;;;;;;;52.93;21.00;;;;;;;2.55;58.11;95615.38;5053620;28;20663;-84
2022/03/24 02:23:33;;;;;;;59.00;21.20;;;;;;;2.50;58.43;95627.97;5053423;28;20163;-84
2022/03/24 02:26:01;;;;;;;55.93;20.83;;;;;;;2.25;57.76;95587.84;5071641;28;20673;-84
2022/03/24 02:28:27;;;;;;;51.17;22.37;;;;;;;2.00;58.15;95568.50;5055533;28;20249;-84
2022/03/24 02:30:52;;;;;;;56.80;23.47;;;;;;;2.13;58.50;95576.00;5074821;28;20216;-84
2022/03/24 02:33:22;;;;;;;53.00;22.00;;;;;;;1.94;58.46;95550.09;5070836;28;20679;-81
2022/03/24 02:35:48;;;;;;;57.70;24.10;;;;;;;2.36;57.84;95611.03;5071121;28;20236;-81
2022/03/24 02:38:14;;;;;;;59.37;24.70;;;;;;;2.27;58.73;95591.13;5053091;28;20178;-81
2022/03/24 02:40:40;;;;;;;68.17;27.27;;;;;;;2.33;58.92;95600.13;5053304;28;20615;-82
2022/03/24 02:43:05;;;;;;;59.43;24.33;;;;;;;2.13;59.57;95563.00;5071473;28;20197;-84
2022/03/24 02:45:31;;;;;;;76.07;28.10;;;;;;;2.02;59.24;95552.78;5071362;28;20174;-84
2022/03/24 02:47:56;;;;;;;70.03;28.10;;;;;;;2.09;59.36;95561.66;5071224;28;20183;-84
2022/03/24 02:50:22;;;;;;;80.23;30.63;;;;;;;2.01;59.87;95559.75;5053481;28;20186;-84
2022/03/24 02:52:47;;;;;;;73.53;29.83;;;;;;;1.87;59.64;95542.06;5071163;28;20200;-84
2022/03/24 02:55:13;;;;;;;78.50;30.87;;;;;;;1.88;59.54;95543.69;5071218;28;20174;-84
2022/03/24 02:57:38;;;;;;;82.30;32.30;;;;;;;2.36;60.18;95618.03;5053205;28;20265;-84
2022/03/24 03:00:06;;;;;;;76.30;32.50;;;;;;;2.38;59.73;95616.09;5071136;28;20189;-84
2022/03/24 03:02:32;;;;;;;120.43;50.23;;;;;;;2.00;60.07;95542.53;5071066;28;20170;-84
2022/03/24 03:04:57;;;;;;;103.77;43.37;;;;;;;1.76;60.31;95511.88;5070448;28;20169;-84
2022/03/24 03:07:23;;;;;;;92.23;37.17;;;;;;;1.92;60.00;95550.22;5065673;28;20666;-84
2022/03/24 03:09:49;;;;;;;121.30;44.37;;;;;;;2.28;60.36;95613.53;5052695;28;20178;-84
2022/03/24 03:12:16;;;;;;;126.40;48.90;;;;;;;1.98;60.63;95573.03;5052685;28;20274;-85
2022/03/24 03:14:42;;;;;;;97.73;41.57;;;;;;;1.59;60.31;95520.38;5071297;28;20336;-88
2022/03/24 03:17:09;;;;;;;114.20;42.33;;;;;;;1.72;60.51;95538.25;5053641;28;20217;-88
2022/03/24 03:19:34;;;;;;;103.97;38.67;;;;;;;2.20;60.26;95613.41;5071127;28;20183;-89
2022/03/24 03:22:00;;;;;;;112.23;40.63;;;;;;;2.14;60.95;95609.63;5071218;28;20658;-88
2022/03/24 03:25:01;;;;;;;90.80;37.63;;;;;;;2.14;61.36;95612.22;5053273;28;20253;-89
2022/03/24 03:27:27;;;;;;;80.20;34.00;;;;;;;1.76;60.78;95550.81;5067455;28;20162;-85
2022/03/24 03:29:53;;;;;;;77.77;33.97;;;;;;;1.84;60.40;95560.50;5057234;28;20718;-87
2022/03/24 03:32:21;;;;;;;80.80;35.77;;;;;;;1.73;60.61;95555.47;5086797;28;20187;-86
2022/03/24 03:34:46;;;;;;;90.87;35.27;;;;;;;1.76;61.23;95547.41;5074632;28;20230;-86
2022/03/24 03:37:12;;;;;;;79.70;31.20;;;;;;;1.97;61.53;95586.16;5074628;28;20171;-87
2022/03/24 03:39:37;;;;;;;79.70;32.53;;;;;;;1.83;61.15;95572.66;5057093;28;20174;-87
2022/03/24 03:42:04;;;;;;;66.40;27.63;;;;;;;1.44;61.61;95522.59;5057129;28;20651;-87
2022/03/24 03:44:30;;;;;;;67.77;27.57;;;;;;;1.76;61.67;95588.91;5090024;28;20655;-87
2022/03/24 03:46:56;;;;;;;67.80;27.00;;;;;;;1.86;61.60;95598.31;5074313;28;20568;-88
2022/03/24 03:49:22;;;;;;;63.33;25.33;;;;;;;1.11;61.57;95472.00;5074619;28;20239;-88
2022/03/24 03:51:48;;;;;;;56.23;25.70;;;;;;;1.23;61.65;95490.00;5074674;28;20175;-88
2022/03/24 03:54:14;;;;;;;60.17;25.57;;;;;;;1.57;62.05;95547.41;5056380;28;20205;-89
2022/03/24 03:56:40;;;;;;;59.93;25.03;;;;;;;1.53;61.25;95546.91;5074276;28;20167;-89
2022/03/24 03:59:06;;;;;;;63.83;27.37;;;;;;;1.72;61.59;95575.41;5056301;28;20257;-88
2022/03/24 04:01:32;;;;;;;59.47;25.37;;;;;;;1.70;61.31;95564.34;5056049;28;20170;-89
2022/03/24 04:03:58;;;;;;;56.80;26.23;;;;;;;1.30;61.31;95502.25;5055897;28;20228;-89
2022/03/24 04:06:24;;;;;;;63.83;27.37;;;;;;;1.54;61.27;95548.53;5073930;28;20219;-89
2022/03/24 04:08:50;;;;;;;69.40;28.33;;;;;;;1.72;61.87;95580.59;5073711;28;20179;-88
2022/03/24 04:11:16;;;;;;;71.60;29.87;;;;;;;1.12;62.70;95527.28;5073652;28;20186;-89
2022/03/24 04:13:42;;;;;;;77.00;29.27;;;;;;;1.34;63.08;95599.59;5055726;28;20309;-88
2022/03/24 04:16:13;;;;;;;64.90;36.37;;;;;;;1.03;64.48;95554.00;5074020;28;20243;-89
2022/03/24 04:18:44;;;;;;;803.30;456.30;;;;;;;1.06;63.95;95543.34;5073401;28;20224;-88
2022/03/24 04:21:10;;;;;;;1999.90;999.90;;;;;;;1.05;63.20;95539.94;5071633;28;20175;-88
2022/03/24 04:23:37;;;;;;;1999.90;999.90;;;;;;;1.55;63.33;95604.66;5073780;28;20228;-88
2022/03/24 04:26:03;;;;;;;1999.90;999.90;;;;;;;0.88;63.34;95504.31;5055566;28;20655;-88
2022/03/24 04:28:29;;;;;;;1999.90;999.90;;;;;;;1.26;63.09;95545.00;5072516;28;20178;-86
2022/03/24 04:30:55;;;;;;;1999.90;999.90;;;;;;;1.22;62.98;95542.78;5054830;28;20178;-86
2022/03/24 04:33:20;;;;;;;1999.90;999.90;;;;;;;1.38;63.01;95563.84;5055131;28;20256;-87
2022/03/24 04:35:45;;;;;;;1999.90;999.90;;;;;;;1.18;62.57;95500.78;5055341;28;20165;-86
2022/03/24 04:38:14;;;;;;;1999.90;999.90;;;;;;;1.66;62.16;95586.31;5055219;28;20182;-87
2022/03/24 04:40:39;;;;;;;1999.90;999.90;;;;;;;1.36;62.20;95540.63;5054815;28;20205;-87
2022/03/24 04:43:05;;;;;;;1999.90;999.90;;;;;;;1.22;62.46;95519.47;5055312;28;20615;-87
2022/03/24 04:45:33;;;;;;;1999.90;999.90;;;;;;;2.03;61.89;95617.56;5057960;28;20175;-86
2022/03/24 04:48:00;;;;;;;1999.90;999.90;;;;;;;2.30;60.85;95618.59;5086798;28;20174;-87
2022/03/24 04:50:26;;;;;;;1999.90;999.90;;;;;;;2.64;59.99;95619.69;5055117;28;20171;-88
2022/03/24 04:52:52;;;;;;;947.00;589.30;;;;;;;2.95;58.35;95625.44;5055119;28;20201;-89
2022/03/24 04:55:18;;;;;;;67.03;49.13;;;;;;;3.20;57.39;95601.31;5073039;28;21013;-88
2022/03/24 04:57:44;;;;;;;58.57;29.10;;;;;;;3.50;55.40;95583.72;5077728;28;20178;-87
2022/03/24 05:00:11;;;;;;;71.57;30.17;;;;;;;3.58;54.14;95547.34;5084799;28;20644;-86
2022/03/24 05:02:38;;;;;;;75.93;29.77;;;;;;;4.62;53.87;95637.59;5071720;28;20174;-84
2022/03/24 05:05:04;;;;;;;75.63;29.40;;;;;;;4.72;51.40;95560.09;5072553;28;20173;-84
2022/03/24 05:07:29;;;;;;;75.40;30.03;;;;;;;5.34;50.37;95557.97;5072512;28;20177;-82
2022/03/24 05:09:55;;;;;;;56.37;21.37;;;;;;;6.35;47.44;95605.47;5071865;28;20243;-82
2022/03/24 05:12:21;;;;;;;36.90;16.20;;;;;;;7.33;45.64;95634.78;5072490;28;20174;-82
2022/03/24 05:14:47;;;;;;;66.03;28.30;;;;;;;7.90;43.85;95560.03;5072398;28;20740;-85
2022/03/24 05:17:13;;;;;;;60.13;25.97;;;;;;;9.10;41.22;95573.88;5054476;28;20186;-83
2022/03/24 05:19:44;;;;;;;69.40;28.67;;;;;;;10.20;38.42;95587.59;5054546;28;20181;-82
2022/03/24 05:22:10;;;;;;;61.63;26.97;;;;;;;11.30;36.83;95635.09;5072199;28;20169;-82
2022/03/24 05:24:37;;;;;;;73.53;28.03;;;;;;;11.85;35.15;95605.06;5054473;28;20546;-83
2022/03/24 05:27:05;;;;;;;42.43;20.40;;;;;;;12.05;34.18;95547.03;5072019;28;20200;-82
2022/03/24 05:29:30;;;;;;;66.07;27.40;;;;;;;12.84;33.26;95550.41;5072207;28;20167;-83
2022/03/24 05:31:56;;;;;;;50.53;23.77;;;;;;;13.82;31.44;95574.03;5072434;28;20186;-83
2022/03/24 05:34:21;;;;;;;102.57;26.43;;;;;;;14.45;30.20;95566.84;5072096;28;20604;-83
2022/03/24 05:36:47;;;;;;;73.27;27.03;;;;;;;15.15;29.39;95601.88;5072069;28;20213;-83
2022/03/24 05:39:13;;;;;;;53.05;23.42;;;;;;;15.42;28.64;95584.63;5072008;28;20565;-83
2022/03/24 05:41:39;;;;;;;76.47;35.80;;;;;;;16.01;28.38;95572.44;5071627;28;20170;-83
2022/03/24 05:44:04;;;;;;;100.90;38.15;;;;;;;16.33;27.42;95527.81;5072104;28;20178;-84
2022/03/24 05:46:38;;;;;;;138.35;71.65;;;;;;;17.45;26.51;95624.22;5053961;28;20174;-83
2022/03/24 05:49:08;;;;;;;591.85;270.33;;;;;;;17.80;26.04;95618.03;5071402;28;20178;-84
2022/03/24 05:51:34;;;;;;;990.38;399.33;;;;;;;18.27;25.06;95581.31;5071462;28;20698;-85
2022/03/24 05:53:59;;;;;;;1510.97;585.10;;;;;;;18.96;24.37;95560.56;5053902;28;20277;-85
2022/03/24 05:56:25;;;;;;;1121.25;601.63;;;;;;;19.40;23.86;95556.88;5053882;28;20212;-85
2022/03/24 05:58:51;;;;;;;1999.90;999.90;;;;;;;20.26;22.92;95622.03;5072197;28;20222;-85
2022/03/24 06:01:18;;;;;;;1999.90;999.90;;;;;;;20.56;22.66;95580.59;5083610;28;20171;-85
2022/03/24 06:03:45;;;;;;;1999.90;999.90;;;;;;;20.68;21.50;95543.75;5076103;28;20344;-85
2022/03/24 06:06:12;;;;;;;1999.90;999.90;;;;;;;21.48;21.44;95595.41;5071822;28;20177;-85
2022/03/24 06:08:38;;;;;;;1999.90;999.90;;;;;;;21.84;20.62;95571.19;5071984;28;20177;-86
2022/03/24 06:11:04;;;;;;;617.70;489.77;;;;;;;22.42;20.14;95604.06;5072100;28;20627;-86
2022/03/24 06:13:30;;;;;;;27.20;24.38;;;;;;;22.28;19.88;95573.44;5085817;28;20213;-87
2022/03/24 06:15:56;;;;;;;20.65;11.32;;;;;;;22.27;19.54;95552.25;5074213;28;20183;-86
2022/03/24 06:18:21;;;;;;;22.08;12.02;;;;;;;22.67;19.47;95564.88;5072067;28;20178;-86
2022/03/24 06:20:47;;;;;;;20.48;10.88;;;;;;;22.71;18.96;95574.00;5054004;28;20197;-85
2022/03/24 06:23:13;;;;;;;24.30;10.85;;;;;;;23.37;18.58;95615.06;5071709;28;20174;-85
2022/03/24 06:25:42;;;;;;;24.83;10.90;;;;;;;23.66;18.67;95591.88;5071898;28;20178;-85
2022/03/24 06:28:08;;;;;;;23.73;11.07;;;;;;;23.98;18.44;95617.56;5071813;28;20183;-85
2022/03/24 06:30:34;;;;;;;27.67;12.02;;;;;;;23.91;18.16;95563.25;5070996;28;20178;-82
2022/03/24 06:32:59;;;;;;;23.48;10.75;;;;;;;24.46;17.76;95546.00;5071272;28;20202;-83
2022/03/24 06:35:25;;;;;;;30.38;12.23;;;;;;;24.99;17.25;95563.09;5071089;28;20291;-84
2022/03/24 06:37:51;;;;;;;32.97;11.27;;;;;;;24.74;16.66;95536.31;5071190;28;20170;-83
2022/03/24 06:40:18;;;;;;;31.60;11.55;;;;;;;24.34;17.01;95532.88;5071438;28;20182;-84
2022/03/24 06:42:44;;;;;;;22.15;10.80;;;;;;;24.62;17.69;95587.88;5071179;28;20166;-83
2022/03/24 06:45:11;;;;;;;36.83;12.38;;;;;;;24.63;17.36;95604.84;5053556;28;20576;-86
2022/03/24 06:47:39;;;;;;;23.42;12.15;;;;;;;24.48;17.81;95608.41;5071849;28;20891;-84
2022/03/24 06:50:05;;;;;;;25.55;11.75;;;;;;;24.21;18.61;95608.09;5063095;28;20635;-84
2022/03/24 06:52:31;;;;;;;27.55;13.10;;;;;;;23.53;19.26;95595.16;5071267;28;20261;-84
2022/03/24 06:54:56;;;;;;;28.85;13.20;;;;;;;23.04;19.72;95570.78;5050755;28;20743;-82
2022/03/24 06:57:21;;;;;;;38.60;14.82;;;;;;;22.51;19.28;95532.66;5069408;28;20170;-84
2022/03/24 06:59:47;;;;;;;29.63;14.63;;;;;;;21.95;20.08;95522.94;5052889;28;20651;-83
2022/03/24 07:02:13;;;;;;;34.60;15.68;;;;;;;21.52;20.07;95570.53;5053720;28;20182;-85
2022/03/24 07:04:38;;;;;;;37.97;16.10;;;;;;;21.01;21.15;95521.22;5075154;28;20252;-83
2022/03/24 07:07:04;;;;;;;30.08;15.75;;;;;;;20.69;21.71;95546.19;5074964;28;20336;-84
2022/03/24 07:09:30;;;;;;;38.00;16.85;;;;;;;20.33;22.07;95525.53;5056469;28;20189;-84
2022/03/24 07:11:56;;;;;;;29.90;15.82;;;;;;;20.03;22.15;95526.06;5074723;28;20166;-83
2022/03/24 07:14:22;;;;;;;40.20;17.50;;;;;;;20.07;22.24;95588.66;5075184;28;20226;-83
2022/03/24 07:16:48;;;;;;;36.10;17.75;;;;;;;19.58;22.67;95542.44;5084417;28;20669;-84
2022/03/24 07:19:14;;;;;;;35.97;16.80;;;;;;;19.36;23.06;95573.66;5075156;28;20174;-84
2022/03/24 07:21:40;;;;;;;33.72;16.50;;;;;;;19.06;23.32;95588.19;5074567;28;20174;-83
2022/03/24 07:24:05;;;;;;;34.13;16.30;;;;;;;18.35;23.62;95533.75;5075029;28;20197;-84
2022/03/24 07:26:31;;;;;;;33.92;15.80;;;;;;;17.69;24.60;95521.97;5075060;28;20209;-83
2022/03/24 07:28:57;;;;;;;37.30;16.08;;;;;;;17.99;25.64;95585.63;5064708;28;21059;-83
2022/03/24 07:31:23;;;;;;;29.63;14.77;;;;;;;17.91;25.04;95579.88;5074432;28;20166;-84
2022/03/24 07:33:50;;;;;;;27.80;14.20;;;;;;;17.31;25.03;95545.66;5073974;28;20242;-84
2022/03/24 07:36:20;;;;;;;36.30;14.45;;;;;;;17.29;25.90;95580.53;5074390;28;20182;-84
2022/03/24 07:38:46;;;;;;;29.35;13.70;;;;;;;16.83;26.35;95540.66;5073411;28;20694;-83
2022/03/24 07:41:11;;;;;;;24.52;12.98;;;;;;;16.61;27.32;95489.91;5071993;28;20209;-86
2022/03/24 07:43:37;;;;;;;24.50;11.98;;;;;;;17.43;27.56;95567.75;5056231;28;20162;-84
2022/03/24 07:46:02;;;;;;;24.80;12.57;;;;;;;17.74;26.70;95555.84;5056169;28;20166;-84
2022/03/24 07:48:30;;;;;;;25.80;11.82;;;;;;;17.77;25.94;95512.78;5073994;28;20662;-84
2022/03/24 07:50:56;;;;;;;22.27;10.95;;;;;;;18.46;26.20;95570.19;5074064;28;20268;-86
2022/03/24 07:53:31;;;;;;;24.63;9.32;;;;;;;18.91;25.52;95581.84;5055811;28;20224;-86
2022/03/24 07:55:58;;;;;;;25.35;11.25;;;;;;;18.65;25.82;95505.97;5055836;28;20331;-85
2022/03/24 07:58:23;;;;;;;19.90;10.48;;;;;;;18.73;24.40;95500.22;5056126;28;20170;-85
2022/03/24 08:00:49;;;;;;;24.83;10.90;;;;;;;18.80;23.95;95500.84;5056373;28;20200;-84
2022/03/24 08:03:20;;;;;;;25.45;10.63;;;;;;;18.85;24.89;95572.97;5074136;28;20170;-88
2022/03/24 08:05:47;;;;;;;31.88;10.75;;;;;;;18.83;25.73;95549.19;5054263;28;20166;-88
2022/03/24 08:08:14;;;;;;;19.25;10.88;;;;;;;19.26;25.13;95566.31;5055642;28;20174;-84
2022/03/24 08:10:40;;;;;;;25.27;10.48;;;;;;;;;;5072290;28;20262;-83
2022/03/24 08:13:07;;;;;;;27.27;11.45;;;;;;;19.47;25.22;95532.66;5055748;28;20197;-83
2022/03/24 08:15:35;;;;;;;22.17;10.50;;;;;;;19.58;25.49;95497.03;5055015;28;20178;-82
2022/03/24 08:18:00;;;;;;;22.80;9.05;;;;;;;20.01;24.47;95543.41;5073622;28;20171;-84
2022/03/24 08:20:26;;;;;;;20.33;9.45;;;;;;;20.34;24.01;95553.91;5055796;28;20182;-82
2022/03/24 08:22:55;;;;;;;26.98;9.63;;;;;;;20.24;23.88;95506.47;5055710;28;20198;-82
2022/03/24 08:25:20;;;;;;;16.92;8.18;;;;;;;20.53;24.19;95506.19;5073330;28;20174;-82
2022/03/24 08:27:46;;;;;;;25.38;9.23;;;;;;;20.41;24.29;95450.19;5073629;28;20178;-83
2022/03/24 08:30:12;;;;;;;19.58;9.88;;;;;;;21.24;24.53;95554.84;5056699;28;20175;-80
2022/03/24 08:32:39;;;;;;;14.65;7.55;;;;;;;21.12;24.09;95525.56;5074214;28;20221;-81
2022/03/24 08:35:05;;;;;;;16.45;7.70;;;;;;;21.04;24.10;95508.13;5055140;28;20762;-81
2022/03/24 08:37:30;;;;;;;25.23;9.02;;;;;;;21.39;24.54;95539.66;5073437;28;20544;-82
2022/03/24 08:39:56;;;;;;;15.93;7.85;;;;;;;21.56;23.79;95547.47;5073358;28;20166;-83
2022/03/24 08:42:21;;;;;;;22.42;8.00;;;;;;;21.54;24.41;95527.38;5055978;28;20171;-80
2022/03/24 08:44:47;;;;;;;21.38;7.28;;;;;;;21.59;23.36;95533.56;5073808;28;20189;-81
2022/03/24 08:47:13;;;;;;;19.10;7.03;;;;;;;21.48;23.72;95520.38;5073098;28;20220;-82
2022/03/24 08:49:38;;;;;;;18.05;7.30;;;;;;;21.64;23.20;95533.56;5055325;28;20261;-82
2022/03/24 08:52:04;;;;;;;19.08;7.88;;;;;;;21.53;23.45;95501.66;5073083;28;20249;-82
2022/03/24 08:54:30;;;;;;;11.23;6.53;;;;;;;21.64;23.44;95524.72;5073100;28;20197;-83
2022/03/24 08:56:55;;;;;;;14.10;6.88;;;;;;;21.41;23.43;95483.94;5073035;28;20174;-83
2022/03/24 08:59:21;;;;;;;12.93;6.53;;;;;;;21.23;22.55;95454.94;5072884;28;20174;-81
2022/03/24 09:01:46;;;;;;;13.50;6.43;;;;;;;21.72;23.81;95516.16;5055122;28;20167;-82
2022/03/24 09:04:12;;;;;;;11.65;5.80;;;;;;;21.25;23.26;95447.47;5072737;28;20228;-82
2022/03/24 09:06:38;;;;;;;17.10;6.57;;;;;;;21.58;22.18;95517.75;5072584;28;20194;-84
2022/03/24 09:09:05;;;;;;;14.35;5.70;;;;;;;21.16;21.64;95523.97;5054795;28;20245;-82
2022/03/24 09:11:31;;;;;;;15.20;6.00;;;;;;;20.78;22.13;95473.44;5072422;28;20266;-82
2022/03/24 09:13:56;;;;;;;8.32;4.60;;;;;;;20.71;22.10;95500.44;5072529;28;20967;-83
2022/03/24 09:16:22;;;;;;;11.13;4.80;;;;;;;20.27;22.82;95473.88;5072722;28;20189;-83
2022/03/24 09:18:48;;;;;;;11.65;5.10;;;;;;;20.21;23.43;95474.91;5054426;28;20662;-83
2022/03/24 09:21:14;;;;;;;15.43;5.90;;;;;;;20.20;23.17;95488.53;5054292;28;20210;-86
2022/03/24 09:23:40;;;;;;;13.60;5.43;;;;;;;20.22;22.89;95497.09;5054541;28;20170;-86
2022/03/24 09:26:06;;;;;;;11.13;4.85;;;;;;;19.98;23.29;95484.06;5056090;28;20178;-84
2022/03/24 09:28:32;;;;;;;8.23;4.85;;;;;;;19.93;23.74;95469.84;5053791;28;20186;-84
2022/03/24 09:30:58;;;;;;;16.38;5.18;;;;;;;20.36;23.98;95500.97;5070650;28;20217;-84
2022/03/24 09:33:24;;;;;;;12.27;5.00;;;;;;;20.36;22.65;95500.97;5066617;28;20190;-84
2022/03/24 09:35:50;;;;;;;7.68;4.65;;;;;;;20.06;21.96;95458.75;5071342;28;20187;-85
2022/03/24 09:38:17;;;;;;;16.65;6.35;;;;;;;19.70;22.32;95432.78;5069109;28;20654;-84
2022/03/24 09:40:43;;;;;;;11.90;4.90;;;;;;;20.02;22.88;95496.91;5072062;28;20258;-87
2022/03/24 09:43:08;;;;;;;11.82;5.25;;;;;;;19.36;23.21;95414.25;5072265;28;20201;-86
2022/03/24 09:45:34;;;;;;;10.30;4.95;;;;;;;19.59;22.98;95478.09;5084539;28;20174;-84
2022/03/24 09:48:00;;;;;;;16.83;5.28;;;;;;;19.31;23.18;95442.75;5072318;28;20174;-86
2022/03/24 09:50:27;;;;;;;10.25;5.28;;;;;;;19.38;23.98;95468.19;5072289;28;20170;-87
2022/03/24 09:52:53;;;;;;;13.63;5.70;;;;;;;19.47;23.04;95472.06;5071775;28;20291;-87
2022/03/24 09:55:20;;;;;;;14.73;5.82;;;;;;;19.43;22.51;95467.47;5054405;28;20262;-86
2022/03/24 09:57:47;;;;;;;13.30;4.90;;;;;;;;;;5068414;28;20562;-85
2022/03/24 10:00:13;;;;;;;11.63;4.97;;;;;;;19.47;22.60;95463.22;5054001;28;20174;-85
2022/03/24 10:02:39;;;;;;;7.50;4.55;;;;;;;19.51;21.48;95459.03;5071747;28;20182;-85
2022/03/24 10:05:07;;;;;;;11.85;5.57;;;;;;;18.73;22.50;95335.63;5053564;28;20562;-84
2022/03/24 10:07:47;;;;;;;10.38;5.03;;;;;;;19.39;22.11;95442.28;5071427;28;20163;-85
2022/03/24 10:10:24;;;;;;;8.43;5.10;;;;;;;19.38;21.76;95454.84;5054127;28;20178;-85
2022/03/24 10:12:50;;;;;;;11.95;5.30;;;;;;;19.32;22.50;95439.03;5071734;28;20181;-82
2022/03/24 10:15:16;;;;;;;9.20;5.20;;;;;;;18.75;21.72;95384.22;5053282;28;20186;-83
2022/03/24 10:17:54;;;;;;;8.65;4.60;;;;;;;19.08;22.87;95441.97;5053547;28;20265;-83
2022/03/24 10:20:21;;;;;;;9.23;4.95;;;;;;;19.12;22.69;95444.94;5053725;28;20174;-85
2022/03/24 10:22:53;;;;;;;10.77;5.97;;;;;;;19.12;22.69;95437.72;5084157;28;20177;-83
2022/03/24 10:25:28;;;;;;;12.20;5.10;;;;;;;19.20;22.04;95447.97;5052193;28;20184;-84
2022/03/24 10:28:08;;;;;;;8.75;4.50;;;;;;;19.15;22.66;95434.56;5070237;28;20178;-83
2022/03/24 10:30:51;;;;;;;9.10;4.60;;;;;;;19.15;22.17;95428.44;5067351;28;20561;-83
2022/03/24 10:33:40;;;;;;;14.35;5.13;;;;;;;19.14;22.33;95430.28;5044838;28;20671;-84
2022/03/24 10:36:15;;;;;;;7.22;4.13;;;;;;;19.13;22.61;95428.66;5042575;28;20175;-84
2022/03/24 10:38:46;;;;;;;11.95;5.57;;;;;;;19.13;23.39;95420.66;5051872;28;20562;-84
2022/03/24 10:41:12;;;;;;;12.85;5.95;;;;;;;18.89;23.18;95381.97;5056503;28;20171;-84
2022/03/24 10:43:38;;;;;;;9.25;4.70;;;;;;;18.64;22.80;95336.31;5038831;28;20171;-84
2022/03/24 10:46:27;;;;;;;8.73;4.45;;;;;;;18.90;21.01;95410.25;5049772;28;20228;-84
2022/03/24 10:48:53;;;;;;;10.35;4.65;;;;;;;18.81;23.08;95407.22;5047017;28;20183;-83
2022/03/24 10:51:33;;;;;;;10.60;4.25;;;;;;;18.35;23.69;95325.81;5049380;28;20175;-84
2022/03/24 10:54:25;;;;;;;8.07;4.07;;;;;;;18.81;20.95;95391.22;5049707;28;20695;-84
2022/03/24 10:57:13;;;;;;;8.30;4.75;;;;;;;18.81;21.72;95396.56;5031638;28;20616;-84
2022/03/24 10:59:44;;;;;;;9.10;4.05;;;;;;;18.77;23.07;95391.94;5051630;28;20176;-84
2022/03/24 11:02:09;;;;;;;8.95;4.93;;;;;;;18.50;22.42;95343.06;5051160;28;20174;-83
2022/03/24 11:04:35;;;;;;;14.48;5.13;;;;;;;18.77;22.08;95382.09;5048968;28;20179;-83
2022/03/24 11:07:01;;;;;;;17.65;6.75;;;;;;;18.78;23.95;95374.88;5050638;28;20185;-84
2022/03/24 11:09:29;;;;;;;15.88;4.93;;;;;;;18.83;23.40;95366.97;5049940;28;20628;-83
2022/03/24 11:12:31;;;;;;;11.40;5.00;;;;;;;18.95;23.31;95364.94;5052730;28;20730;-84
2022/03/24 11:15:05;;;;;;;7.20;4.15;;;;;;;18.93;22.97;95342.25;5030412;28;20684;-83
2022/03/24 11:17:33;;;;;;;9.98;4.63;;;;;;;18.98;21.22;95360.97;5049776;28;20181;-83
2022/03/24 11:20:03;;;;;;;11.30;4.93;;;;;;;19.02;21.60;95351.44;5050577;28;20182;-83